createdAt,value
2019-03-18T00:01:52.016Z,2.67
2019-03-18T00:04:23.454Z,4.20
2019-03-18T00:06:54.635Z,3.87
2019-03-18T00:09:25.463Z,1.57
2019-03-18T00:11:56.548Z,3.03
2019-03-18T00:14:27.601Z,2.27
2019-03-18T00:16:58.545Z,5.27
2019-03-18T00:19:29.634Z,2.27
2019-03-18T00:22:00.777Z,3.03
2019-03-18T00:24:32.159Z,3.60
2019-03-18T00:27:03.016Z,2.00
2019-03-18T00:29:34.331Z,5.43
2019-03-18T00:32:05.320Z,2.33
2019-03-18T00:34:36.288Z,2.20
2019-03-18T00:37:07.121Z,2.87
2019-03-18T00:39:38.153Z,4.83
2019-03-18T00:42:08.628Z,1.77
2019-03-18T00:44:40.601Z,1.33
2019-03-18T00:47:12.645Z,3.00
2019-03-18T00:49:43.115Z,1.40
2019-03-18T00:52:14.931Z,2.00
2019-03-18T00:54:45.517Z,2.20
2019-03-18T00:57:15.891Z,3.33
2019-03-18T00:59:46.457Z,2.23
2019-03-18T01:02:16.820Z,4.27
2019-03-18T01:04:47.887Z,2.23
2019-03-18T01:07:19.079Z,1.83
2019-03-18T01:09:49.490Z,2.90
2019-03-18T01:12:20.267Z,2.63
2019-03-18T01:14:51.001Z,1.50
2019-03-18T01:17:21.527Z,1.93
2019-03-18T01:19:51.987Z,2.47
2019-03-18T01:22:22.571Z,1.57
2019-03-18T01:24:52.976Z,3.17
2019-03-18T01:27:25.385Z,5.23
2019-03-18T01:29:55.361Z,2.97
2019-03-18T01:32:25.729Z,3.63
2019-03-18T01:34:56.191Z,2.17
2019-03-18T01:37:26.700Z,2.13
2019-03-18T01:39:57.149Z,1.10
2019-03-18T01:42:27.507Z,2.73
2019-03-18T01:44:57.889Z,1.50
2019-03-18T01:47:28.462Z,2.47
2019-03-18T01:49:58.922Z,1.23
2019-03-18T01:52:29.651Z,1.83
2019-03-18T01:55:00.366Z,2.03
2019-03-18T01:57:30.753Z,2.90
2019-03-18T02:00:01.427Z,2.73
2019-03-18T02:02:32.005Z,1.50
2019-03-18T02:05:02.413Z,3.07
2019-03-18T02:07:32.825Z,1.70
2019-03-18T02:10:03.494Z,4.73
2019-03-18T02:12:33.879Z,2.20
2019-03-18T02:15:04.571Z,3.23
2019-03-18T02:17:34.991Z,1.43
2019-03-18T02:20:06.431Z,3.03
2019-03-18T02:22:37.009Z,6.00
2019-03-18T02:25:07.804Z,3.33
2019-03-18T02:27:38.270Z,5.77
2019-03-18T02:30:09.218Z,3.57
2019-03-18T02:32:39.684Z,4.07
2019-03-18T02:35:10.338Z,4.23
2019-03-18T02:37:40.714Z,3.37
2019-03-18T02:40:11.960Z,3.53
2019-03-18T02:42:42.658Z,2.50
2019-03-18T02:45:13.414Z,2.83
2019-03-18T02:47:44.046Z,4.03
2019-03-18T02:50:15.035Z,4.60
2019-03-18T02:52:45.373Z,5.73
2019-03-18T02:55:17.276Z,5.23
2019-03-18T02:57:48.905Z,6.67
2019-03-18T03:00:19.303Z,5.90
2019-03-18T03:02:49.618Z,4.57
2019-03-18T03:05:20.820Z,8.17
2019-03-18T03:07:51.191Z,5.17
2019-03-18T03:10:21.602Z,7.23
2019-03-18T03:12:52.203Z,14.07
2019-03-18T03:15:22.609Z,8.67
2019-03-18T03:17:52.976Z,5.37
2019-03-18T03:20:23.382Z,6.83
2019-03-18T03:22:53.731Z,5.13
2019-03-18T03:25:25.178Z,5.57
2019-03-18T03:27:56.528Z,7.30
2019-03-18T03:30:27.051Z,5.80
2019-03-18T03:32:57.651Z,6.60
2019-03-18T03:35:28.182Z,6.17
2019-03-18T03:37:58.633Z,9.13
2019-03-18T03:40:30.011Z,11.87
2019-03-18T03:43:02.251Z,6.00
2019-03-18T03:45:32.795Z,9.90
2019-03-18T03:48:03.208Z,9.67
2019-03-18T03:50:33.893Z,6.40
2019-03-18T03:53:04.283Z,13.67
2019-03-18T03:55:34.941Z,19.13
2019-03-18T03:58:05.797Z,10.37
2019-03-18T04:00:36.936Z,7.60
2019-03-18T04:03:07.293Z,11.17
2019-03-18T04:05:38.002Z,14.00
2019-03-18T04:08:08.366Z,7.03
2019-03-18T04:10:38.814Z,12.30
2019-03-18T04:13:09.364Z,6.83
2019-03-18T04:15:39.784Z,8.13
2019-03-18T04:18:10.421Z,9.00
2019-03-18T04:20:40.828Z,6.00
2019-03-18T04:23:11.380Z,9.47
2019-03-18T04:25:42.811Z,9.37
2019-03-18T04:28:13.256Z,8.37
2019-03-18T04:30:43.769Z,12.00
2019-03-18T04:33:14.171Z,7.33
2019-03-18T04:35:44.569Z,10.87
2019-03-18T04:38:14.967Z,7.13
2019-03-18T04:40:45.331Z,14.40
2019-03-18T04:43:15.715Z,7.77
2019-03-18T04:45:46.154Z,9.33
2019-03-18T04:48:16.522Z,11.70
2019-03-18T04:50:46.902Z,9.57
2019-03-18T04:53:17.295Z,10.63
2019-03-18T04:55:47.657Z,9.87
2019-03-18T04:58:18.085Z,10.33
2019-03-18T05:00:48.408Z,9.87
2019-03-18T05:03:18.827Z,16.50
2019-03-18T05:05:49.310Z,13.23
2019-03-18T05:08:19.810Z,12.30
2019-03-18T05:10:50.164Z,10.77
2019-03-18T05:13:20.596Z,9.80
2019-03-18T05:15:51.275Z,11.67
2019-03-18T05:18:21.711Z,17.03
2019-03-18T05:20:52.332Z,10.83
2019-03-18T05:23:23.900Z,18.97
2019-03-18T05:25:54.277Z,11.97
2019-03-18T05:28:24.743Z,13.00
2019-03-18T05:30:55.073Z,13.63
2019-03-18T05:33:25.723Z,12.20
2019-03-18T05:35:56.140Z,16.57
2019-03-18T05:38:27.699Z,10.83
2019-03-18T05:40:58.052Z,17.67
2019-03-18T05:43:28.498Z,16.00
2019-03-18T05:45:58.836Z,15.47
2019-03-18T05:48:29.270Z,15.63
2019-03-18T05:50:59.566Z,12.00
2019-03-18T05:53:30.002Z,14.00
2019-03-18T05:56:00.493Z,11.53
2019-03-18T05:58:30.873Z,14.23
2019-03-18T06:01:01.218Z,14.47
2019-03-18T06:03:31.750Z,12.33
2019-03-18T06:06:02.132Z,15.03
2019-03-18T06:08:32.531Z,19.70
2019-03-18T06:11:03.001Z,10.57
2019-03-18T06:13:33.567Z,11.20
2019-03-18T06:16:04.248Z,16.90
2019-03-18T06:18:34.719Z,14.60
2019-03-18T06:21:05.134Z,16.87
2019-03-18T06:23:35.608Z,16.90
2019-03-18T06:26:06.136Z,14.07
2019-03-18T06:28:36.462Z,16.57
2019-03-18T06:31:06.970Z,16.97
2019-03-18T06:33:37.356Z,13.23
2019-03-18T06:36:07.848Z,15.73
2019-03-18T06:38:38.211Z,14.40
2019-03-18T06:41:08.554Z,13.77
2019-03-18T06:43:38.940Z,17.53
2019-03-18T06:46:09.298Z,21.70
2019-03-18T06:48:39.860Z,13.43
2019-03-18T06:51:10.299Z,17.17
2019-03-18T06:53:40.724Z,11.13
2019-03-18T06:56:12.304Z,11.53
2019-03-18T06:58:42.818Z,13.20
2019-03-18T07:01:13.152Z,15.30
2019-03-18T07:03:43.850Z,14.23
2019-03-18T07:06:14.270Z,11.27
2019-03-18T07:08:44.670Z,13.57
2019-03-18T07:11:15.386Z,13.60
2019-03-18T07:13:45.839Z,15.50
2019-03-18T07:16:16.209Z,15.87
2019-03-18T07:18:47.971Z,14.50
2019-03-18T07:21:19.788Z,13.00
2019-03-18T07:23:50.191Z,10.40
2019-03-18T07:26:20.675Z,13.43
2019-03-18T07:28:51.045Z,10.80
2019-03-18T07:31:21.429Z,11.70
2019-03-18T07:33:51.800Z,11.40
2019-03-18T07:36:22.219Z,12.70
2019-03-18T07:38:53.824Z,15.00
2019-03-18T07:41:24.460Z,11.13
2019-03-18T07:43:55.146Z,15.20
2019-03-18T07:46:25.508Z,15.33
2019-03-18T07:48:55.957Z,11.90
2019-03-18T07:51:26.380Z,11.40
2019-03-18T07:53:56.829Z,14.83
2019-03-18T07:56:27.181Z,12.17
2019-03-18T07:58:57.819Z,11.10
2019-03-18T08:01:28.180Z,11.30
2019-03-18T08:03:58.645Z,15.93
2019-03-18T08:06:28.958Z,11.83
2019-03-18T08:08:59.632Z,11.47
2019-03-18T08:11:30.026Z,9.97
2019-03-18T08:14:00.574Z,10.87
2019-03-18T08:16:31.990Z,11.10
2019-03-18T08:19:02.446Z,14.30
2019-03-18T08:21:32.890Z,8.57
2019-03-18T08:24:03.253Z,11.63
2019-03-18T08:26:34.663Z,9.27
2019-03-18T08:29:05.272Z,11.20
2019-03-18T08:31:35.696Z,8.80
2019-03-18T08:34:06.440Z,13.80
2019-03-18T08:36:36.960Z,10.33
2019-03-18T08:39:08.620Z,10.97
2019-03-18T08:41:39.070Z,10.97
2019-03-18T08:44:09.450Z,10.97
2019-03-18T08:46:40.361Z,8.87
2019-03-18T08:49:10.743Z,9.30
2019-03-18T08:51:41.184Z,9.27
2019-03-18T08:54:11.513Z,8.57
2019-03-18T08:56:42.210Z,10.70
2019-03-18T08:59:12.524Z,6.50
2019-03-18T09:01:45.228Z,6.90
2019-03-18T09:04:15.632Z,12.17
2019-03-18T09:06:46.089Z,8.07
2019-03-18T09:09:17.330Z,10.63
2019-03-18T09:11:47.827Z,6.50
2019-03-18T09:14:18.408Z,10.70
2019-03-18T09:16:48.736Z,7.70
2019-03-18T09:19:19.113Z,6.80
2019-03-18T09:21:49.574Z,7.40
2019-03-18T09:24:20.037Z,6.87
2019-03-18T09:27:01.778Z,12.60
2019-03-18T09:29:22.428Z,9.33
2019-03-18T09:31:52.804Z,4.67
2019-03-18T09:34:24.930Z,6.77
2019-03-18T09:36:55.318Z,6.43
2019-03-18T09:39:25.692Z,7.20
2019-03-18T09:41:56.082Z,9.63
2019-03-18T09:44:26.476Z,8.30
2019-03-18T09:46:56.974Z,9.47
2019-03-18T09:49:27.399Z,8.70
2019-03-18T09:51:57.914Z,7.40
2019-03-18T09:54:28.349Z,7.90
2019-03-18T09:56:58.734Z,8.07
2019-03-18T09:59:29.120Z,10.97
2019-03-18T10:01:59.641Z,6.73
2019-03-18T10:04:30.034Z,6.80
2019-03-18T10:07:00.412Z,10.07
2019-03-18T10:09:31.082Z,10.80
2019-03-18T10:12:01.810Z,9.80
2019-03-18T10:14:32.218Z,8.83
2019-03-18T10:17:09.539Z,8.87
2019-03-18T10:19:34.680Z,6.23
2019-03-18T10:22:05.020Z,10.40
2019-03-18T10:24:35.375Z,7.47
2019-03-18T10:27:05.905Z,11.57
2019-03-18T10:29:36.315Z,12.37
2019-03-18T10:32:06.772Z,8.13
2019-03-18T10:34:37.230Z,9.43
2019-03-18T10:37:07.629Z,8.53
2019-03-18T10:39:38.161Z,6.27
2019-03-18T10:42:08.718Z,9.23
2019-03-18T10:44:39.123Z,5.20
2019-03-18T10:47:09.865Z,10.83
2019-03-18T10:49:46.178Z,10.33
2019-03-18T10:52:13.809Z,7.53
2019-03-18T10:54:44.191Z,8.43
2019-03-18T10:57:14.583Z,7.50
2019-03-18T10:59:46.570Z,8.07
2019-03-18T11:02:17.004Z,7.57
2019-03-18T11:04:47.382Z,6.57
2019-03-18T11:07:17.775Z,6.03
2019-03-18T11:09:48.309Z,6.80
2019-03-18T11:12:18.826Z,10.83
2019-03-18T11:14:49.454Z,5.10
2019-03-18T11:17:19.880Z,5.40
2019-03-18T11:19:58.477Z,5.93
2019-03-18T11:22:22.478Z,9.70
2019-03-18T11:24:53.010Z,8.70
2019-03-18T11:27:23.432Z,9.90
2019-03-18T11:29:53.803Z,10.57
2019-03-18T11:32:24.244Z,9.23
2019-03-18T11:35:07.349Z,8.77
2019-03-18T11:37:38.199Z,9.20
2019-03-18T11:40:09.531Z,8.00
2019-03-18T11:42:40.046Z,8.20
2019-03-18T11:45:11.200Z,11.50
2019-03-18T11:47:41.621Z,10.50
2019-03-18T11:50:12.977Z,5.80
2019-03-18T11:52:43.351Z,8.37
2019-03-18T11:55:15.134Z,5.87
2019-03-18T11:57:45.964Z,8.17
2019-03-18T12:00:17.603Z,8.23
2019-03-18T12:02:48.394Z,6.13
2019-03-18T12:05:19.156Z,10.20
2019-03-18T12:07:49.519Z,9.37
2019-03-18T12:10:19.918Z,5.27
2019-03-18T12:12:50.557Z,11.00
2019-03-18T12:15:22.502Z,7.17
2019-03-18T12:17:53.991Z,11.53
2019-03-18T12:20:25.972Z,9.90
2019-03-18T12:22:56.923Z,12.63
2019-03-18T12:25:27.332Z,10.57
2019-03-18T12:27:57.891Z,11.70
2019-03-18T12:30:28.487Z,7.73
2019-03-18T12:32:58.877Z,9.87
2019-03-18T12:35:29.229Z,7.80
2019-03-18T12:37:59.711Z,7.53
2019-03-18T12:40:30.507Z,12.73
2019-03-18T12:43:01.123Z,9.27
2019-03-18T12:45:31.449Z,11.97
2019-03-18T12:48:02.433Z,7.67
2019-03-18T12:50:49.072Z,9.47
2019-03-18T12:53:05.057Z,9.13
2019-03-18T12:55:35.350Z,8.63
2019-03-18T12:58:05.838Z,8.03
2019-03-18T13:00:36.956Z,11.20
2019-03-18T13:03:07.291Z,28.20
2019-03-18T13:05:37.706Z,7.20
2019-03-18T13:08:08.044Z,6.97
2019-03-18T13:10:38.623Z,5.97
2019-03-18T13:13:09.368Z,6.47
2019-03-18T13:15:39.693Z,8.93
2019-03-18T13:18:10.121Z,6.93
2019-03-18T13:20:40.507Z,7.40
2019-03-18T13:23:11.024Z,5.50
2019-03-18T13:25:41.371Z,4.87
2019-03-18T13:28:11.786Z,5.53
2019-03-18T13:30:42.209Z,10.47
2019-03-18T13:33:12.588Z,7.33
2019-03-18T13:35:43.352Z,9.73
2019-03-18T13:38:13.803Z,5.20
2019-03-18T13:40:45.999Z,7.77
2019-03-18T13:43:16.474Z,8.60
2019-03-18T13:45:55.338Z,6.23
2019-03-18T13:48:19.231Z,10.17
2019-03-18T13:50:50.917Z,5.43
2019-03-18T13:53:21.414Z,5.57
2019-03-18T13:55:51.765Z,6.13
2019-03-18T13:58:22.245Z,8.27
2019-03-18T14:00:52.636Z,6.03
2019-03-18T14:03:23.594Z,9.27
2019-03-18T14:05:54.110Z,6.80
2019-03-18T14:08:24.646Z,6.67
2019-03-18T14:10:55.399Z,10.10
2019-03-18T14:13:25.776Z,8.23
2019-03-18T14:15:56.328Z,6.67
2019-03-18T14:18:26.768Z,8.80
2019-03-18T14:20:57.116Z,7.87
2019-03-18T14:23:27.944Z,7.47
2019-03-18T14:25:58.302Z,11.87
2019-03-18T14:28:28.812Z,15.10
2019-03-18T14:30:59.296Z,10.47
2019-03-18T14:33:29.693Z,11.50
2019-03-18T14:36:00.426Z,6.00
2019-03-18T14:38:30.819Z,6.30
2019-03-18T14:41:01.231Z,6.17
2019-03-18T14:43:31.665Z,5.23
2019-03-18T14:46:02.565Z,7.40
2019-03-18T14:48:33.010Z,4.33
2019-03-18T14:51:03.357Z,6.43
2019-03-18T14:53:33.762Z,6.63
2019-03-18T14:56:04.268Z,6.30
2019-03-18T14:58:34.614Z,6.07
2019-03-18T15:01:05.914Z,4.27
2019-03-18T15:03:36.532Z,8.40
2019-03-18T15:06:06.925Z,5.17
2019-03-18T15:08:37.356Z,6.03
2019-03-18T15:11:07.744Z,9.73
2019-03-18T15:13:38.111Z,6.73
2019-03-18T15:16:08.532Z,4.13
2019-03-18T15:18:38.924Z,8.57
2019-03-18T15:21:09.400Z,9.73
2019-03-18T15:23:39.821Z,7.37
2019-03-18T15:26:11.309Z,4.73
2019-03-18T15:28:41.644Z,8.40
2019-03-18T15:31:12.568Z,6.03
2019-03-18T15:33:43.735Z,7.87
2019-03-18T15:36:14.171Z,4.67
2019-03-18T15:38:44.547Z,5.00
2019-03-18T15:41:14.913Z,7.37
2019-03-18T15:43:45.515Z,15.93
2019-03-18T15:46:15.855Z,9.00
2019-03-18T15:48:47.428Z,7.67
2019-03-18T15:51:17.869Z,8.37
2019-03-18T15:53:48.442Z,8.07
2019-03-18T15:56:18.815Z,5.50
2019-03-18T15:58:49.202Z,7.13
2019-03-18T16:01:21.025Z,8.57
2019-03-18T16:03:51.521Z,6.87
2019-03-18T16:06:22.050Z,10.07
2019-03-18T16:08:52.488Z,10.60
2019-03-18T16:11:23.699Z,8.07
2019-03-18T16:13:54.088Z,6.20
2019-03-18T16:16:24.444Z,3.43
2019-03-18T16:18:54.811Z,7.23
2019-03-18T16:21:25.170Z,5.67
2019-03-18T16:23:55.556Z,11.70
2019-03-18T16:26:25.905Z,5.40
2019-03-18T16:28:56.315Z,9.20
2019-03-18T16:31:27.777Z,7.03
2019-03-18T16:33:58.299Z,15.03
2019-03-18T16:36:28.657Z,9.00
2019-03-18T16:38:59.060Z,6.40
2019-03-18T16:41:29.456Z,6.37
2019-03-18T16:43:59.901Z,8.77
2019-03-18T16:46:30.314Z,6.50
2019-03-18T16:49:00.722Z,6.70
2019-03-18T16:51:31.097Z,7.80
2019-03-18T16:54:01.495Z,14.17
2019-03-18T16:56:31.938Z,8.77
2019-03-18T16:59:02.355Z,12.57
2019-03-18T17:01:32.769Z,12.27
2019-03-18T17:04:03.266Z,10.33
2019-03-18T17:06:33.616Z,13.70
2019-03-18T17:09:05.875Z,11.60
2019-03-18T17:11:36.589Z,20.03
2019-03-18T17:14:06.961Z,19.83
2019-03-18T17:16:37.542Z,18.53
2019-03-18T17:19:07.968Z,21.83
2019-03-18T17:21:38.415Z,23.00
2019-03-18T17:24:08.873Z,27.10
2019-03-18T17:26:39.231Z,22.67
2019-03-18T17:29:09.805Z,25.73
2019-03-18T17:31:40.290Z,21.63
2019-03-18T17:34:10.677Z,16.33
2019-03-18T17:36:41.382Z,19.53
2019-03-18T17:39:14.596Z,17.53
2019-03-18T17:41:43.915Z,14.83
2019-03-18T17:44:14.259Z,17.83
2019-03-18T17:46:44.790Z,14.93
2019-03-18T17:49:15.223Z,17.73
2019-03-18T17:51:45.992Z,19.93
2019-03-18T17:54:16.483Z,16.37
2019-03-18T17:56:46.799Z,26.60
2019-03-18T17:59:18.195Z,21.57
2019-03-18T18:01:49.813Z,16.23
2019-03-18T18:04:20.179Z,20.17
2019-03-18T18:06:50.571Z,19.67
2019-03-18T18:09:21.107Z,22.73
2019-03-18T18:11:51.699Z,33.40
2019-03-18T18:14:22.099Z,21.43
2019-03-18T18:16:52.576Z,20.33
2019-03-18T18:19:22.942Z,21.83
2019-03-18T18:21:53.356Z,16.00
2019-03-18T18:24:23.939Z,25.87
2019-03-18T18:26:54.416Z,21.17
2019-03-18T18:29:24.811Z,16.30
2019-03-18T18:31:55.208Z,26.10
2019-03-18T18:34:25.861Z,21.70
2019-03-18T18:36:56.367Z,26.40
2019-03-18T18:39:26.788Z,23.27
2019-03-18T18:41:57.239Z,22.20
2019-03-18T18:44:27.741Z,30.30
2019-03-18T18:46:58.162Z,29.43
2019-03-18T18:49:28.520Z,24.63
2019-03-18T18:51:58.925Z,16.77
2019-03-18T18:54:29.789Z,24.43
2019-03-18T18:57:00.155Z,26.50
2019-03-18T18:59:30.536Z,25.13
2019-03-18T19:02:01.207Z,20.67
2019-03-18T19:04:31.577Z,23.67
2019-03-18T19:07:02.001Z,24.27
2019-03-18T19:09:32.498Z,28.23
2019-03-18T19:12:03.127Z,28.43
2019-03-18T19:14:33.612Z,28.87
2019-03-18T19:17:04.251Z,34.73
2019-03-18T19:19:34.677Z,42.40
2019-03-18T19:22:05.031Z,30.47
2019-03-18T19:24:35.601Z,32.00
2019-03-18T19:27:06.430Z,30.10
2019-03-18T19:29:36.947Z,33.57
2019-03-18T19:32:08.173Z,31.73
2019-03-18T19:34:38.643Z,36.40
2019-03-18T19:37:09.115Z,27.10
2019-03-18T19:39:39.547Z,31.73
2019-03-18T19:42:10.088Z,32.40
2019-03-18T19:44:40.431Z,29.00
2019-03-18T19:47:10.817Z,26.87
2019-03-18T19:49:41.224Z,27.93
2019-03-18T19:52:11.600Z,35.47
2019-03-18T19:54:42.127Z,23.97
2019-03-18T19:57:12.480Z,29.10
2019-03-18T19:59:42.880Z,25.17
2019-03-18T20:02:13.295Z,29.10
2019-03-18T20:04:43.664Z,28.97
2019-03-18T20:07:14.117Z,27.10
2019-03-18T20:09:45.190Z,31.87
2019-03-18T20:12:15.851Z,34.60
2019-03-18T20:14:46.181Z,33.67
2019-03-18T20:17:16.751Z,55.93
2019-03-18T20:19:47.101Z,30.43
2019-03-18T20:22:17.909Z,25.00
2019-03-18T20:24:48.385Z,29.47
2019-03-18T20:27:18.813Z,32.23
2019-03-18T20:29:49.536Z,26.50
2019-03-18T20:32:20.357Z,25.60
2019-03-18T20:34:51.219Z,28.20
2019-03-18T20:37:21.749Z,23.40
2019-03-18T20:39:52.158Z,24.97
2019-03-18T20:42:22.497Z,24.50
2019-03-18T20:44:53.849Z,28.97
2019-03-18T20:47:24.583Z,34.60
2019-03-18T20:49:55.008Z,25.87
2019-03-18T20:52:25.824Z,31.30
2019-03-18T20:54:56.273Z,31.53
2019-03-18T20:57:27.165Z,24.57
2019-03-18T20:59:57.535Z,29.13
2019-03-18T21:02:27.984Z,28.10
2019-03-18T21:04:58.694Z,29.20
2019-03-18T21:07:29.133Z,30.93
2019-03-18T21:09:59.909Z,34.37
2019-03-18T21:12:30.327Z,27.37
2019-03-18T21:15:00.701Z,30.83
2019-03-18T21:17:31.393Z,36.67
2019-03-18T21:20:02.102Z,29.17
2019-03-18T21:22:32.728Z,27.17
2019-03-18T21:25:03.108Z,31.63
2019-03-18T21:27:33.492Z,27.87
2019-03-18T21:30:04.329Z,31.10
2019-03-18T21:32:35.622Z,27.10
2019-03-18T21:35:06.342Z,27.70
2019-03-18T21:37:36.720Z,29.40
2019-03-18T21:40:07.681Z,28.13
2019-03-18T21:42:38.079Z,31.10
2019-03-18T21:45:10.544Z,24.50
2019-03-18T21:47:41.044Z,22.67
2019-03-18T21:50:11.834Z,24.83
2019-03-18T21:52:42.397Z,24.43
2019-03-18T21:55:13.434Z,33.70
2019-03-18T21:57:44.166Z,32.63
2019-03-18T22:00:16.151Z,26.67
2019-03-18T22:02:47.068Z,26.80
2019-03-18T22:05:17.830Z,26.13
2019-03-18T22:07:48.656Z,31.47
2019-03-18T22:10:19.130Z,25.00
2019-03-18T22:12:49.499Z,46.00
2019-03-18T22:15:20.318Z,21.17
2019-03-18T22:17:50.798Z,19.10
2019-03-18T22:20:21.430Z,25.17
2019-03-18T22:22:51.802Z,23.07
2019-03-18T22:25:22.172Z,25.63
2019-03-18T22:27:52.916Z,16.90
2019-03-18T22:30:23.299Z,19.47
2019-03-18T22:32:53.657Z,28.47
2019-03-18T22:35:24.074Z,25.23
2019-03-18T22:37:54.456Z,25.57
2019-03-18T22:40:25.432Z,19.83
2019-03-18T22:42:55.820Z,22.53
2019-03-18T22:45:26.197Z,20.03
2019-03-18T22:47:56.590Z,23.27
2019-03-18T22:50:27.216Z,18.93
2019-03-18T22:52:57.620Z,24.37
2019-03-18T22:55:28.016Z,22.33
2019-03-18T22:57:58.363Z,24.73
2019-03-18T23:00:39.227Z,25.70
2019-03-18T23:03:09.844Z,25.47
2019-03-18T23:05:40.612Z,26.03
2019-03-18T23:08:11.022Z,28.90
2019-03-18T23:10:41.716Z,26.10
2019-03-18T23:13:12.332Z,28.93
2019-03-18T23:15:44.016Z,22.43
2019-03-18T23:18:14.368Z,26.47
2019-03-18T23:20:45.082Z,23.73
2019-03-18T23:23:15.499Z,24.43
2019-03-18T23:25:47.110Z,25.00
2019-03-18T23:28:17.648Z,30.50
2019-03-18T23:30:48.136Z,28.73
2019-03-18T23:33:18.627Z,31.27
2019-03-18T23:35:48.996Z,28.10
2019-03-18T23:38:19.637Z,26.47
2019-03-18T23:40:50.045Z,28.10
2019-03-18T23:43:20.384Z,25.33
2019-03-18T23:45:50.756Z,27.00
2019-03-18T23:48:21.154Z,33.73
2019-03-18T23:50:51.523Z,35.40
2019-03-18T23:53:21.937Z,27.40
2019-03-18T23:55:52.348Z,25.00
2019-03-18T23:58:22.707Z,25.57
